• Join FlightAware (Why Join?)
  • Login
  • US Flag 
01:29PM EDT


 

Airport Tracker/Info


-or-


 

Live Flight TrackerFlight Track Log ✈ PDT4236 ✈ 25-May-2013 ✈ KHTS - KCLT

Flight Track Log - Related Links

Times and Time Zones

All times are in EDT time to prevent confusion due to time zone crossing. See the PDT4236 flight status page for this flight to view local times or setup timezone preferences in your user account.

Time Position Orientation Groundspeed Altitude Reporting Facility
EDT Latitude Longitude Course Direction KTS MPH feet Rate Location/Type
04:39PM 38.1953 -82.5112 174° South  Level FlightAware Approximate
04:39PM 38.3103 -82.5992 170° South 175 201 5,000  Level Indianapolis Center
04:40PM 38.1376 -82.5030 174° South  Level FlightAware Approximate
04:40PM 38.2631 -82.5883 170° South 172 198 6,300  Level Indianapolis Center
04:41PM 38.0805 -82.4897 167° South  Level FlightAware Approximate
04:41PM 38.2042 -82.5719 168° South 215 247 7,700  Level Indianapolis Center
04:42PM 38.0239 -82.4735 167° South  Level FlightAware Approximate
04:42PM 38.1450 -82.5583 170° South 217 250 9,100  Level Indianapolis Center
04:43PM 37.9570 -82.4614 171° South  Level FlightAware Approximate
04:43PM 38.0856 -82.5439 169° South 218 251 10,500  Level Indianapolis Center
04:44PM 38.0136 -82.5256 169° South 223 257 12,100 1,320 Climbing Indianapolis Center
04:45PM 37.9481 -82.5083 168° South 235 270 13,300 1,260 Climbing Indianapolis Center
04:46PM 37.8828 -82.4919 169° South 238 274 14,700 1,140 Climbing Indianapolis Center
04:47PM 37.8178 -82.4750 168° South 238 274 15,700 1,080 Climbing Indianapolis Center
04:48PM 37.7511 -82.4583 169° South 241 277 17,000 600 Climbing Indianapolis Center
04:49PM 37.6806 -82.4417 169° South 255 293 17,000  Level Indianapolis Center
04:50PM 37.6025 -82.4206 168° South 280 322 17,000  Level Indianapolis Center
04:51PM 37.5236 -82.4025 170° South 285 328 17,000  Level Indianapolis Center
04:52PM 37.4419 -82.3808 168° South 296 341 17,000  Level Indianapolis Center
04:53PM 37.3450 -82.3558 168° South 303 349 17,000  Level Indianapolis Center
04:54PM 37.2619 -82.3356 169° South 301 346 17,000  Level Indianapolis Center
04:55PM 37.1775 -82.3136 168° South 306 352 17,000  Level Indianapolis Center
04:56PM 37.0933 -82.2925 169° South 307 353 17,000 -60 Level Indianapolis Center
04:57PM 37.0097 -82.2722 169° South 304 350 16,900 -60 Descending Indianapolis Center
04:58PM 36.9247 -82.2514 169° South 307 353 16,900  Level Indianapolis Center
04:59PM 36.8422 -82.2294 168° South 303 349 16,900  Level Indianapolis Center
05:00PM 36.7589 -82.2097 169° South 303 349 16,900 -60 Level Indianapolis Center
05:01PM 36.6753 -82.1889 169° South 304 350 16,800 -420 Descending Indianapolis Center
05:02PM 36.5875 -82.1661 168° South 314 361 16,100 -780 Descending Indianapolis Center
05:03PM 36.5381 -82.1550 170° South 316 364 15,700 -780 Descending Atlanta Center
05:04PM 36.4461 -82.1342 170° South 327 376 15,000 -900 Descending Atlanta Center
05:05PM 36.3681 -82.0894 155° Southeast 319 367 13,900 -1,080 Descending Atlanta Center
05:06PM 36.2903 -82.0372 152° Southeast 319 367 12,900 -660 Descending Atlanta Center
05:07PM 36.2100 -81.9828 151° Southeast 324 373 12,600 -600 Descending Atlanta Center
05:08PM 36.1297 -81.9281 151° Southeast 329 379 11,800 -840 Descending Atlanta Center
05:09PM 36.0517 -81.8764 152° Southeast 329 379 11,000 -840 Descending Atlanta Center
05:10PM 35.9758 -81.8294 153° Southeast 319 367 10,200 -900 Descending Atlanta Center
05:11PM 35.9019 -81.7803 152° Southeast 309 356 9,300 -840 Descending Atlanta Center
05:11PM 35.8786 -81.7681 157° South 296 341 9,100 -300 Descending Atlanta Center
05:12PM 35.8322 -81.7361 151° Southeast 299 344 9,000 -60 Descending Atlanta Center
05:13PM 35.7606 -81.6894 152° Southeast 283 326 9,000  Level Atlanta Center
05:14PM 35.6886 -81.6456 154° Southeast 284 327 9,000  Level Atlanta Center
05:15PM 35.6125 -81.5942 151° Southeast 288 331 9,000 -60 Level Atlanta Center
05:16PM 35.5611 -81.5217 131° Southeast 291 335 8,900 -420 Descending Atlanta Center
05:17PM 35.5364 -81.4408 111° Southeast 277 319 8,200 -780 Descending Atlanta Center
05:18PM 35.5219 -81.3492 101° East 270 311 7,500 -600 Descending Atlanta Center
05:19PM 35.5094 -81.2578 100° East 269 310 7,000 -600 Descending Atlanta Center
05:20PM 35.4950 -81.1767 102° East 271 312 6,400 -840 Descending Atlanta Center
05:21PM 35.4847 -81.0878 98° East 277 319 5,400 -1,080 Descending Atlanta Center
05:22PM 35.4514 -81.0050 116° Southeast 208 239 4,200 -660 Descending Atlanta Center
05:23PM 35.3944 -80.9814 161° South 213 245 4,000 -240 Descending Atlanta Center